DOH weather

Hamad International Airport
Doha, Ad Dawhah Municipality, Qatar

Public forecast

Using degrees Celsius for public forecast. Weather courtesy of forecast.io.

Closest aviation weather report (METAR) to Hamad International Airport

Closest report is Doha International Airport, 2.4 nm (4.5 km) WSW. Retrieved 2019/11/17 08:30 UTC (16 minutes ago):

OTBD 170830Z 12015KT 9999 FEW035 29/16 Q1015 NOSIG

Closest aviation forecast (TAF) to Hamad International Airport

Closest forecast is Doha International Airport, 2.4 nm (4.5 km) WSW. Retrieved 2019/11/17 06:00 UTC (3 hours ago):

TAF OTBD 170502Z 1706/1812 14012KT 9000 NSC PROB40 TEMPO 1706/1715 VRB12G22KT 4000 TSRA FEW035CB